createdAt,value
2023-04-18T00:02:00.461Z,28.02
2023-04-18T00:04:27.870Z,25.38
2023-04-18T00:06:55.772Z,26.80
2023-04-18T00:09:24.575Z,27.60
2023-04-18T00:11:52.224Z,27.63
2023-04-18T00:14:20.725Z,24.13
2023-04-18T00:16:47.974Z,25.50
2023-04-18T00:19:15.577Z,23.77
2023-04-18T00:21:44.693Z,26.20
2023-04-18T00:24:12.333Z,23.65
2023-04-18T00:26:39.598Z,24.67
2023-04-18T00:29:06.765Z,24.35
2023-04-18T00:31:33.873Z,23.02
2023-04-18T00:34:01.004Z,25.63
2023-04-18T00:36:28.209Z,22.48
2023-04-18T00:38:55.348Z,25.20
2023-04-18T00:41:22.846Z,21.10
2023-04-18T00:43:49.979Z,25.60
2023-04-18T00:46:17.137Z,25.92
2023-04-18T00:48:44.270Z,21.33
2023-04-18T00:51:12.146Z,21.17
2023-04-18T00:53:39.343Z,21.20
2023-04-18T00:56:07.526Z,20.83
2023-04-18T00:58:34.654Z,22.38
2023-04-18T01:01:01.796Z,20.60
2023-04-18T01:03:29.128Z,20.20
2023-04-18T01:05:57.497Z,21.90
2023-04-18T01:08:25.586Z,21.90
2023-04-18T01:10:52.774Z,19.90
2023-04-18T01:13:21.435Z,20.05
2023-04-18T01:15:49.273Z,21.58
2023-04-18T01:18:16.855Z,21.02
2023-04-18T01:20:50.665Z,20.45
2023-04-18T01:23:18.969Z,26.02
2023-04-18T01:25:46.511Z,24.40
2023-04-18T01:28:14.675Z,24.50
2023-04-18T01:30:41.856Z,21.17
2023-04-18T01:33:09.044Z,21.23
2023-04-18T01:35:36.271Z,22.70
2023-04-18T01:38:03.736Z,23.35
2023-04-18T01:40:30.914Z,21.73
2023-04-18T01:42:58.065Z,22.75
2023-04-18T01:45:25.380Z,19.98
2023-04-18T01:47:52.571Z,20.80
2023-04-18T01:50:19.901Z,23.02
2023-04-18T01:52:47.110Z,21.95
2023-04-18T01:55:14.242Z,20.08
2023-04-18T01:57:41.536Z,20.67
2023-04-18T02:00:08.988Z,19.67
2023-04-18T02:02:36.327Z,22.25
2023-04-18T02:05:03.618Z,19.60
2023-04-18T02:07:30.772Z,20.02
2023-04-18T02:09:57.930Z,21.90
2023-04-18T02:12:25.282Z,21.13
2023-04-18T02:14:53.558Z,21.75
2023-04-18T02:17:23.948Z,22.60
2023-04-18T02:19:51.773Z,23.85
2023-04-18T02:22:19.185Z,22.50
2023-04-18T02:24:46.359Z,25.58
2023-04-18T02:27:13.601Z,22.83
2023-04-18T02:29:40.916Z,26.13
2023-04-18T02:32:09.095Z,22.05
2023-04-18T02:34:36.831Z,25.20
2023-04-18T02:37:04.631Z,21.75
2023-04-18T02:39:31.761Z,21.90
2023-04-18T02:41:59.056Z,23.80
2023-04-18T02:44:26.214Z,23.15
2023-04-18T02:46:53.407Z,23.75
2023-04-18T02:49:20.660Z,20.38
2023-04-18T02:51:47.907Z,25.02
2023-04-18T02:54:15.301Z,23.95
2023-04-18T02:56:42.924Z,26.40
2023-04-18T02:59:10.596Z,25.08
2023-04-18T03:01:37.839Z,23.73
2023-04-18T03:04:05.040Z,22.38
2023-04-18T03:06:32.177Z,25.50
2023-04-18T03:08:59.485Z,23.75
2023-04-18T03:11:32.615Z,25.13
2023-04-18T03:13:59.780Z,25.50
2023-04-18T03:16:27.259Z,24.48
2023-04-18T03:18:54.445Z,25.67
2023-04-18T03:21:21.553Z,24.90
2023-04-18T03:23:48.715Z,23.05
2023-04-18T03:26:16.045Z,23.38
2023-04-18T03:28:43.152Z,23.05
2023-04-18T03:31:10.536Z,22.10
2023-04-18T03:33:39.143Z,22.55
2023-04-18T03:36:06.634Z,23.52
2023-04-18T03:38:33.722Z,22.63
2023-04-18T03:41:00.906Z,26.65
2023-04-18T03:43:27.977Z,22.55
2023-04-18T03:45:55.261Z,24.30
2023-04-18T03:48:22.488Z,28.38
2023-04-18T03:50:50.620Z,27.10
2023-04-18T03:53:17.819Z,27.70
2023-04-18T03:55:44.925Z,23.80
2023-04-18T03:58:12.318Z,25.95
2023-04-18T04:00:39.436Z,20.52
2023-04-18T04:03:07.218Z,25.55
2023-04-18T04:05:34.535Z,20.67
2023-04-18T04:08:01.675Z,22.08
2023-04-18T04:10:28.799Z,24.13
2023-04-18T04:12:56.037Z,23.00
2023-04-18T04:15:23.126Z,26.23
2023-04-18T04:17:50.993Z,22.73
2023-04-18T04:20:24.069Z,24.75
2023-04-18T04:22:55.356Z,24.48
2023-04-18T04:25:24.260Z,24.00
2023-04-18T04:27:53.628Z,23.77
2023-04-18T04:30:21.461Z,28.30
2023-04-18T04:32:49.365Z,24.92
2023-04-18T04:35:16.626Z,25.75
2023-04-18T04:37:44.184Z,24.58
2023-04-18T04:40:11.444Z,24.73
2023-04-18T04:42:40.998Z,24.50
2023-04-18T04:45:09.374Z,26.60
2023-04-18T04:47:36.740Z,24.17
2023-04-18T04:50:06.159Z,24.55
2023-04-18T04:52:33.353Z,26.92
2023-04-18T04:55:00.554Z,26.35
2023-04-18T04:57:27.640Z,24.92
2023-04-18T04:59:54.811Z,24.90
2023-04-18T05:02:23.332Z,23.15
2023-04-18T05:04:50.953Z,26.52
2023-04-18T05:07:18.133Z,23.10
2023-04-18T05:09:45.214Z,22.00
2023-04-18T05:12:12.379Z,22.63
2023-04-18T05:14:39.547Z,22.00
2023-04-18T05:17:07.581Z,24.23
2023-04-18T05:19:34.734Z,23.73
2023-04-18T05:22:01.954Z,24.33
2023-04-18T05:24:29.698Z,27.35
2023-04-18T05:26:57.099Z,26.83
2023-04-18T05:29:24.205Z,21.67
2023-04-18T05:31:51.314Z,24.00
2023-04-18T05:34:18.499Z,26.27
2023-04-18T05:36:47.664Z,23.15
2023-04-18T05:39:14.945Z,25.80
2023-04-18T05:41:42.892Z,23.33
2023-04-18T05:44:10.062Z,25.42
2023-04-18T05:46:37.288Z,23.92
2023-04-18T05:49:04.481Z,27.45
2023-04-18T05:51:31.964Z,23.63
2023-04-18T05:53:59.107Z,26.65
2023-04-18T05:56:26.418Z,19.95
2023-04-18T05:58:53.544Z,29.70
2023-04-18T06:01:21.332Z,27.48
2023-04-18T06:03:48.701Z,28.20
2023-04-18T06:06:16.204Z,30.38
2023-04-18T06:08:43.574Z,26.08
2023-04-18T06:11:10.856Z,88.82
2023-04-18T06:13:38.349Z,30.10
2023-04-18T06:16:05.928Z,23.95
2023-04-18T06:18:33.070Z,25.83
2023-04-18T06:21:00.273Z,26.15
2023-04-18T06:23:27.381Z,24.58
2023-04-18T06:25:54.570Z,27.23
2023-04-18T06:28:21.726Z,21.83
2023-04-18T06:30:48.821Z,23.85
2023-04-18T06:33:16.109Z,24.92
2023-04-18T06:35:43.308Z,22.48
2023-04-18T06:38:11.629Z,26.10
2023-04-18T06:40:38.848Z,27.17
2023-04-18T06:43:05.970Z,23.52
2023-04-18T06:45:33.157Z,25.90
2023-04-18T06:48:00.436Z,22.52
2023-04-18T06:50:27.606Z,28.42
2023-04-18T06:52:54.824Z,22.70
2023-04-18T06:55:21.988Z,28.95
2023-04-18T06:57:49.261Z,27.25
2023-04-18T07:00:16.555Z,26.90
2023-04-18T07:02:43.905Z,25.15
2023-04-18T07:05:11.396Z,22.70
2023-04-18T07:07:38.545Z,24.27
2023-04-18T07:10:06.780Z,24.17
2023-04-18T07:12:34.004Z,21.95
2023-04-18T07:15:01.102Z,21.92
2023-04-18T07:17:28.265Z,23.55
2023-04-18T07:19:55.445Z,27.63
2023-04-18T07:22:22.620Z,25.48
2023-04-18T07:24:49.796Z,26.95
2023-04-18T07:27:17.004Z,27.30
2023-04-18T07:29:44.068Z,27.45
2023-04-18T07:32:11.162Z,27.38
2023-04-18T07:34:40.256Z,29.90
2023-04-18T07:37:07.445Z,25.65
2023-04-18T07:39:36.146Z,23.33
2023-04-18T07:42:06.340Z,23.33
2023-04-18T07:44:35.712Z,28.75
2023-04-18T07:47:02.890Z,20.58
2023-04-18T07:49:30.297Z,22.25
2023-04-18T07:51:57.756Z,21.02
2023-04-18T07:54:25.345Z,21.45
2023-04-18T07:56:52.495Z,21.65
2023-04-18T07:59:19.826Z,20.95
2023-04-18T08:01:47.082Z,23.90
2023-04-18T08:04:15.116Z,24.17
2023-04-18T08:06:42.305Z,21.48
2023-04-18T08:09:09.657Z,19.85
2023-04-18T08:11:36.798Z,20.70
2023-04-18T08:14:04.001Z,24.27
2023-04-18T08:16:31.298Z,20.55
2023-04-18T08:18:58.451Z,19.05
2023-04-18T08:21:26.830Z,21.80
2023-04-18T08:23:53.933Z,18.52
2023-04-18T08:26:21.872Z,23.50
2023-04-18T08:28:49.049Z,20.83
2023-04-18T08:31:17.140Z,22.90
2023-04-18T08:33:44.314Z,17.90
2023-04-18T08:36:12.078Z,21.00
2023-04-18T08:38:39.226Z,20.67
2023-04-18T08:41:06.428Z,20.55
2023-04-18T08:43:33.604Z,19.98
2023-04-18T08:46:01.170Z,18.77
2023-04-18T08:48:28.506Z,21.50
2023-04-18T08:50:59.182Z,21.52
2023-04-18T08:53:27.196Z,20.92
2023-04-18T08:55:56.271Z,22.52
2023-04-18T08:58:24.370Z,22.00
2023-04-18T09:00:55.342Z,21.73
2023-04-18T09:03:41.572Z,21.90
2023-04-18T09:06:09.723Z,22.88
2023-04-18T09:08:36.877Z,19.85
2023-04-18T09:11:31.727Z,18.95
2023-04-18T09:13:59.498Z,19.67
2023-04-18T09:16:27.862Z,19.25
2023-04-18T09:19:14.590Z,16.60
2023-04-18T09:21:44.329Z,16.35
2023-04-18T09:24:18.092Z,18.92
2023-04-18T09:26:45.245Z,16.48
2023-04-18T09:29:13.583Z,16.67
2023-04-18T09:31:57.643Z,15.10
2023-04-18T09:34:26.320Z,17.02
2023-04-18T09:37:29.013Z,15.45
2023-04-18T09:39:56.384Z,16.30
2023-04-18T09:42:23.918Z,15.45
2023-04-18T09:45:04.366Z,13.63
2023-04-18T09:47:32.266Z,14.35
2023-04-18T09:49:59.512Z,14.68
2023-04-18T09:52:26.689Z,15.60
2023-04-18T09:54:58.612Z,15.70
2023-04-18T09:57:29.777Z,16.38
2023-04-18T10:00:02.529Z,15.43
2023-04-18T10:04:57.044Z,12.07
2023-04-18T10:07:25.000Z,11.80
2023-04-18T10:09:52.665Z,15.20
2023-04-18T10:12:20.252Z,13.35
2023-04-18T10:14:47.458Z,14.98
2023-04-18T10:17:15.332Z,14.55
2023-04-18T10:19:44.385Z,12.68
2023-04-18T10:22:12.924Z,11.65
2023-04-18T10:24:49.687Z,13.52
2023-04-18T10:27:17.947Z,16.67
2023-04-18T10:29:49.664Z,13.23
2023-04-18T10:32:20.776Z,10.98
2023-04-18T10:34:48.121Z,12.98
2023-04-18T10:37:15.381Z,12.00
2023-04-18T10:39:49.954Z,10.55
2023-04-18T10:42:17.283Z,11.65
2023-04-18T10:44:44.415Z,13.05
2023-04-18T10:47:17.610Z,12.60
2023-04-18T10:49:53.605Z,10.15
2023-04-18T10:52:20.805Z,10.20
2023-04-18T10:54:51.797Z,8.85
2023-04-18T10:57:18.960Z,9.20
2023-04-18T10:59:49.313Z,10.65
2023-04-18T11:02:22.993Z,9.75
2023-04-18T11:04:57.276Z,14.23
2023-04-18T11:07:40.699Z,12.50
2023-04-18T11:10:09.129Z,9.70
2023-04-18T11:12:37.520Z,12.05
2023-04-18T11:15:10.756Z,11.40
2023-04-18T11:17:40.169Z,12.13
2023-04-18T11:20:12.801Z,10.13
2023-04-18T11:22:49.811Z,9.15
2023-04-18T11:25:17.644Z,10.65
2023-04-18T11:27:45.523Z,9.77
2023-04-18T11:30:13.300Z,9.13
2023-04-18T11:32:40.657Z,8.88
2023-04-18T11:35:11.894Z,8.20
2023-04-18T11:37:39.987Z,7.35
2023-04-18T11:40:09.316Z,7.80
2023-04-18T11:42:36.831Z,9.48
2023-04-18T11:45:04.409Z,9.00
2023-04-18T11:47:33.056Z,7.10
2023-04-18T11:50:01.431Z,8.00
2023-04-18T11:52:29.512Z,6.82
2023-04-18T11:54:57.019Z,6.25
2023-04-18T11:57:28.264Z,6.40
2023-04-18T11:59:59.502Z,6.10
2023-04-18T12:02:27.861Z,7.63
2023-04-18T12:04:57.507Z,6.78
2023-04-18T12:07:37.269Z,8.27
2023-04-18T12:10:06.060Z,6.88
2023-04-18T12:12:33.420Z,7.60
2023-04-18T12:15:01.386Z,7.45
2023-04-18T12:17:28.877Z,6.60
2023-04-18T12:19:56.115Z,6.25
2023-04-18T12:23:02.324Z,4.93
2023-04-18T12:25:29.432Z,6.80
2023-04-18T12:28:04.154Z,7.00
2023-04-18T12:30:32.351Z,5.20
2023-04-18T12:33:01.355Z,5.13
2023-04-18T12:35:29.482Z,5.82
2023-04-18T12:37:57.460Z,6.30
2023-04-18T12:40:26.277Z,13.82
2023-04-18T12:42:54.176Z,6.38
2023-04-18T12:45:21.920Z,6.22
2023-04-18T12:47:49.854Z,6.65
2023-04-18T12:50:23.892Z,7.05
2023-04-18T12:52:52.626Z,6.72
2023-04-18T12:55:20.656Z,5.78
2023-04-18T12:57:47.883Z,5.35
2023-04-18T13:00:15.124Z,5.75
2023-04-18T13:02:44.133Z,5.55
2023-04-18T13:05:12.427Z,6.28
2023-04-18T13:07:40.644Z,5.97
2023-04-18T13:10:08.899Z,7.38
2023-04-18T13:12:36.249Z,5.57
2023-04-18T13:15:03.617Z,6.25
2023-04-18T13:17:30.919Z,7.97
2023-04-18T13:19:58.161Z,6.63
2023-04-18T13:22:25.442Z,6.05
2023-04-18T13:24:53.099Z,6.82
2023-04-18T13:27:20.349Z,5.97
2023-04-18T13:29:47.534Z,10.70
2023-04-18T13:32:14.727Z,7.28
2023-04-18T13:34:46.578Z,8.07
2023-04-18T13:37:14.417Z,6.93
2023-04-18T13:39:41.971Z,5.35
2023-04-18T13:42:09.389Z,6.43
2023-04-18T13:44:37.221Z,6.50
2023-04-18T13:47:05.076Z,8.57
2023-04-18T13:49:32.684Z,6.70
2023-04-18T13:52:00.006Z,5.50
2023-04-18T13:54:28.017Z,6.47
2023-04-18T13:56:55.361Z,5.60
2023-04-18T13:59:22.460Z,6.88
2023-04-18T14:01:49.734Z,5.57
2023-04-18T14:04:17.103Z,4.55
2023-04-18T14:06:44.365Z,5.43
2023-04-18T14:09:11.576Z,7.82
2023-04-18T14:11:38.900Z,5.47
2023-04-18T14:14:06.916Z,5.45
2023-04-18T14:16:34.352Z,7.38
2023-04-18T14:19:02.385Z,6.85
2023-04-18T14:21:29.594Z,4.88
2023-04-18T14:23:56.900Z,4.57
2023-04-18T14:26:24.110Z,4.80
2023-04-18T14:28:51.250Z,6.30
2023-04-18T14:31:18.492Z,5.07
2023-04-18T14:33:46.286Z,5.05
2023-04-18T14:36:15.137Z,6.13
2023-04-18T14:38:42.500Z,4.75
2023-04-18T14:41:09.748Z,6.75
2023-04-18T14:43:37.039Z,4.90
2023-04-18T14:46:04.182Z,4.78
2023-04-18T14:48:31.406Z,5.63
2023-04-18T14:50:59.127Z,5.93
2023-04-18T14:53:27.107Z,7.85
2023-04-18T14:55:54.289Z,6.07
2023-04-18T14:58:21.623Z,5.93
2023-04-18T15:00:49.178Z,6.88
2023-04-18T15:03:16.915Z,5.63
2023-04-18T15:05:46.493Z,5.45
2023-04-18T15:08:14.571Z,7.38
2023-04-18T15:10:42.548Z,6.07
2023-04-18T15:13:10.976Z,8.48
2023-04-18T15:15:39.654Z,6.60
2023-04-18T15:18:08.255Z,6.68
2023-04-18T15:20:37.138Z,6.20
2023-04-18T15:23:04.337Z,8.18
2023-04-18T15:25:31.522Z,6.88
2023-04-18T15:27:58.776Z,11.48
2023-04-18T15:30:26.230Z,9.20
2023-04-18T15:32:54.021Z,7.00
2023-04-18T15:35:21.231Z,7.15
2023-04-18T15:37:49.094Z,9.35
2023-04-18T15:40:18.213Z,7.72
2023-04-18T15:42:45.982Z,8.32
2023-04-18T15:45:13.254Z,7.85
2023-04-18T15:47:41.329Z,7.20
2023-04-18T15:50:09.203Z,8.70
2023-04-18T15:52:36.713Z,8.25
2023-04-18T15:55:04.983Z,9.27
2023-04-18T15:57:32.732Z,6.43
2023-04-18T15:59:59.931Z,9.25
2023-04-18T16:02:27.184Z,7.55
2023-04-18T16:04:54.521Z,7.43
2023-04-18T16:07:21.804Z,9.85
2023-04-18T16:09:49.240Z,7.90
2023-04-18T16:12:16.414Z,8.65
2023-04-18T16:14:43.523Z,9.07
2023-04-18T16:17:10.638Z,5.45
2023-04-18T16:19:38.908Z,8.30
2023-04-18T16:22:07.153Z,7.35
2023-04-18T16:24:34.368Z,8.30
2023-04-18T16:27:01.504Z,9.10
2023-04-18T16:29:28.599Z,7.82
2023-04-18T16:31:55.911Z,6.85
2023-04-18T16:34:23.095Z,8.35
2023-04-18T16:36:51.176Z,9.25
2023-04-18T16:39:19.179Z,8.95
2023-04-18T16:41:46.492Z,7.90
2023-04-18T16:44:13.829Z,9.63
2023-04-18T16:46:41.190Z,9.20
2023-04-18T16:49:08.372Z,7.82
2023-04-18T16:51:37.158Z,8.23
2023-04-18T16:54:04.652Z,73.70
2023-04-18T16:56:31.870Z,27.80
2023-04-18T16:58:59.326Z,9.23
2023-04-18T17:01:26.436Z,9.77
2023-04-18T17:03:53.907Z,7.93
2023-04-18T17:06:22.734Z,8.15
2023-04-18T17:08:50.036Z,8.57
2023-04-18T17:11:17.147Z,8.32
2023-04-18T17:13:44.333Z,8.02
2023-04-18T17:16:11.453Z,8.85
2023-04-18T17:18:38.613Z,8.90
2023-04-18T17:21:05.732Z,9.18
2023-04-18T17:23:33.174Z,8.10
2023-04-18T17:26:00.509Z,7.93
2023-04-18T17:28:27.623Z,9.15
2023-04-18T17:30:57.249Z,9.02
2023-04-18T17:33:24.353Z,9.00
2023-04-18T17:35:51.945Z,9.45
2023-04-18T17:38:19.029Z,8.35
2023-04-18T17:40:46.159Z,11.55
2023-04-18T17:43:13.310Z,10.70
2023-04-18T17:45:42.108Z,13.90
2023-04-18T17:48:09.350Z,11.40
2023-04-18T17:50:38.009Z,9.50
2023-04-18T17:53:05.315Z,9.25
2023-04-18T17:55:32.472Z,7.82
2023-04-18T17:57:59.576Z,9.45
2023-04-18T18:00:26.692Z,12.15
2023-04-18T18:02:53.875Z,12.35
2023-04-18T18:05:21.136Z,10.10
2023-04-18T18:07:48.878Z,10.07
2023-04-18T18:10:23.532Z,11.73
2023-04-18T18:12:50.848Z,13.00
2023-04-18T18:15:18.936Z,10.45
2023-04-18T18:17:48.921Z,11.95
2023-04-18T18:20:16.099Z,11.60
2023-04-18T18:22:44.116Z,10.95
2023-04-18T18:25:11.379Z,11.68
2023-04-18T18:27:38.593Z,10.63
2023-04-18T18:30:06.769Z,9.73
2023-04-18T18:32:33.976Z,14.48
2023-04-18T18:35:01.777Z,14.05
2023-04-18T18:37:28.970Z,15.95
2023-04-18T18:39:59.906Z,11.77
2023-04-18T18:42:27.052Z,14.55
2023-04-18T18:44:54.193Z,9.63
2023-04-18T18:47:21.371Z,11.68
2023-04-18T18:49:48.778Z,11.95
2023-04-18T18:52:16.027Z,11.82
2023-04-18T18:54:43.149Z,10.95
2023-04-18T18:57:10.363Z,10.40
2023-04-18T18:59:37.540Z,14.48
2023-04-18T19:02:04.825Z,12.30
2023-04-18T19:04:32.522Z,13.07
2023-04-18T19:06:59.832Z,11.05
2023-04-18T19:09:27.320Z,20.23
2023-04-18T19:11:55.080Z,11.55
2023-04-18T19:14:22.155Z,11.20
2023-04-18T19:16:49.205Z,11.48
2023-04-18T19:19:17.446Z,12.43
2023-04-18T19:21:46.037Z,11.18
2023-04-18T19:24:13.511Z,13.07
2023-04-18T19:26:40.772Z,11.80
2023-04-18T19:29:08.256Z,10.43
2023-04-18T19:31:35.564Z,12.02
2023-04-18T19:34:02.786Z,11.43
2023-04-18T19:36:30.043Z,9.95
2023-04-18T19:38:57.311Z,11.10
2023-04-18T19:41:25.962Z,13.55
2023-04-18T19:43:53.602Z,11.73
2023-04-18T19:46:20.766Z,11.63
2023-04-18T19:48:47.877Z,12.57
2023-04-18T19:51:14.977Z,10.93
2023-04-18T19:53:42.158Z,10.32
2023-04-18T19:56:11.105Z,11.25
2023-04-18T19:58:46.020Z,14.20
2023-04-18T20:01:13.916Z,13.93
2023-04-18T20:03:41.692Z,12.00
2023-04-18T20:06:09.474Z,14.13
2023-04-18T20:08:37.350Z,13.63
2023-04-18T20:11:04.948Z,12.88
2023-04-18T20:13:32.029Z,13.13
2023-04-18T20:15:59.357Z,12.25
2023-04-18T20:18:26.556Z,11.93
2023-04-18T20:20:53.714Z,12.32
2023-04-18T20:23:21.048Z,13.60
2023-04-18T20:25:48.614Z,15.02
2023-04-18T20:28:15.775Z,13.52
2023-04-18T20:30:44.724Z,13.90
2023-04-18T20:33:11.898Z,13.63
2023-04-18T20:35:39.044Z,12.82
2023-04-18T20:38:08.803Z,13.25
2023-04-18T20:40:36.201Z,14.07
2023-04-18T20:43:03.294Z,15.07
2023-04-18T20:45:31.809Z,13.48
2023-04-18T20:47:59.368Z,12.43
2023-04-18T20:50:26.530Z,15.20
2023-04-18T20:52:53.917Z,14.73
2023-04-18T20:55:21.023Z,14.05
2023-04-18T20:57:48.217Z,12.57
2023-04-18T21:00:15.893Z,12.85
2023-04-18T21:02:44.642Z,14.85
2023-04-18T21:05:11.877Z,11.88
2023-04-18T21:07:39.050Z,16.88
2023-04-18T21:10:06.390Z,14.13
2023-04-18T21:12:33.523Z,15.38
2023-04-18T21:15:00.629Z,15.95
2023-04-18T21:17:27.787Z,16.15
2023-04-18T21:19:55.844Z,15.05
2023-04-18T21:22:23.001Z,12.80
2023-04-18T21:24:50.109Z,15.18
2023-04-18T21:27:17.382Z,14.65
2023-04-18T21:29:44.539Z,15.07
2023-04-18T21:32:11.632Z,15.23
2023-04-18T21:34:38.764Z,18.08
2023-04-18T21:37:05.815Z,15.95
2023-04-18T21:39:32.949Z,14.25
2023-04-18T21:42:01.723Z,15.02
2023-04-18T21:44:28.891Z,17.23
2023-04-18T21:46:57.062Z,16.67
2023-04-18T21:49:24.508Z,18.52
2023-04-18T21:51:51.691Z,16.02
2023-04-18T21:54:18.805Z,18.30
2023-04-18T21:56:45.967Z,18.33
2023-04-18T21:59:13.079Z,15.65
2023-04-18T22:01:40.259Z,15.75
2023-04-18T22:04:07.693Z,18.92
2023-04-18T22:06:35.113Z,16.52
2023-04-18T22:09:02.254Z,18.77
2023-04-18T22:11:29.409Z,19.23
2023-04-18T22:13:58.069Z,17.60
2023-04-18T22:16:25.293Z,18.75
2023-04-18T22:18:52.584Z,19.48
2023-04-18T22:21:19.731Z,17.83
2023-04-18T22:23:46.844Z,18.23
2023-04-18T22:26:14.051Z,17.00
2023-04-18T22:28:41.243Z,20.67
2023-04-18T22:31:08.412Z,17.75
2023-04-18T22:33:35.796Z,19.23
2023-04-18T22:36:02.949Z,18.27
2023-04-18T22:38:30.168Z,21.30
2023-04-18T22:40:57.292Z,24.92
2023-04-18T22:43:24.939Z,20.35
2023-04-18T22:45:52.145Z,17.08
2023-04-18T22:48:19.597Z,20.00
2023-04-18T22:50:47.288Z,18.40
2023-04-18T22:53:15.070Z,21.60
2023-04-18T22:55:43.041Z,25.98
2023-04-18T22:58:10.612Z,21.73
2023-04-18T23:00:38.242Z,21.92
2023-04-18T23:03:05.602Z,20.42
2023-04-18T23:05:34.233Z,22.33
2023-04-18T23:08:01.420Z,19.85
2023-04-18T23:10:28.788Z,20.23
2023-04-18T23:12:56.411Z,23.40
2023-04-18T23:15:23.639Z,23.60
2023-04-18T23:17:54.326Z,22.45
2023-04-18T23:20:21.604Z,21.20
2023-04-18T23:22:51.596Z,21.73
2023-04-18T23:25:19.788Z,23.58
2023-04-18T23:27:47.276Z,23.25
2023-04-18T23:30:14.599Z,25.50
2023-04-18T23:32:41.725Z,19.50
2023-04-18T23:35:09.213Z,21.05
2023-04-18T23:37:36.371Z,22.13
2023-04-18T23:40:06.492Z,22.60
2023-04-18T23:42:37.033Z,20.95
2023-04-18T23:45:05.819Z,21.88
2023-04-18T23:47:33.023Z,21.38
2023-04-18T23:50:00.328Z,21.83
2023-04-18T23:52:27.478Z,22.60
2023-04-18T23:54:55.394Z,25.00
2023-04-18T23:57:22.507Z,23.58
2023-04-18T23:59:49.659Z,21.75
